Time;durP1;ratioP1;P1;durP2;ratioP2;P2;SDS_P1;SDS_P2;PMS_P1;PMS_P2;Temp;Humidity;BMP_temperature;BMP_pressure;BME280_temperature;BME280_humidity;BME280_pressure;Samples;Min_cycle;Max_cycle;Signal;HPM_P1;HPM_P2
2022/08/08 00:02:39;;;;;;;7.05;3.35;;;14.20;99.90;;;;;;5051784;28;20044;-60
2022/08/08 00:05:20;;;;;;;6.65;2.83;;;;;;;;;;5033024;28;20051;-60
2022/08/08 00:08:02;;;;;;;6.13;3.40;;;14.30;99.90;;;;;;5051575;28;20095;-60
2022/08/08 00:10:40;;;;;;;5.65;2.60;;;14.20;99.90;;;;;;5033828;28;20099;-60
2022/08/08 00:13:18;;;;;;;7.80;3.47;;;14.10;99.90;;;;;;5033092;28;20056;-60
2022/08/08 00:15:48;;;;;;;5.95;2.78;;;;;;;;;;5033571;28;20048;-60
2022/08/08 00:18:23;;;;;;;5.90;3.03;;;13.90;99.90;;;;;;5051978;28;20041;-60
2022/08/08 00:20:55;;;;;;;5.03;2.92;;;14.60;99.90;;;;;;5032841;28;20055;-60
2022/08/08 00:23:45;;;;;;;9.02;3.50;;;14.00;99.90;;;;;;5033760;28;20525;-60
2022/08/08 00:26:17;;;;;;;5.72;3.55;;;14.00;99.90;;;;;;5050908;28;20040;-60
2022/08/08 00:28:49;;;;;;;5.55;3.00;;;14.10;99.90;;;;;;5033609;28;20045;-60
2022/08/08 00:31:22;;;;;;;7.95;3.67;;;14.10;99.90;;;;;;5033764;28;20041;-60
2022/08/08 00:35:09;;;;;;;6.75;3.88;;;14.10;99.90;;;;;;5032850;28;20099;-60
2022/08/08 00:36:55;;;;;;;7.90;3.97;;;14.00;99.90;;;;;;5033223;28;20080;-60
2022/08/08 00:39:30;;;;;;;;;;;14.00;99.90;;;;;;5052240;28;20041;-60
2022/08/08 00:42:30;;;;;;;8.05;4.03;;;14.00;99.90;;;;;;5032796;28;19923;-60
2022/08/08 00:45:30;;;;;;;7.88;3.72;;;13.90;99.90;;;;;;5033559;28;20041;-60
2022/08/08 00:48:20;;;;;;;7.93;4.03;;;13.80;99.90;;;;;;5050610;28;20041;-59
2022/08/08 00:51:17;;;;;;;9.60;4.53;;;13.80;99.90;;;;;;5033077;28;20049;-60
2022/08/08 00:54:05;;;;;;;7.35;4.10;;;13.80;99.90;;;;;;5051352;28;20037;-59
2022/08/08 00:56:59;;;;;;;6.75;3.47;;;13.80;99.90;;;;;;5035546;28;20107;-60
2022/08/08 00:59:27;;;;;;;6.88;3.70;;;13.80;99.90;;;;;;5036884;28;20052;-60
2022/08/08 01:02:01;;;;;;;8.40;3.90;;;;;;;;;;5036214;28;20048;-60
2022/08/08 01:04:27;;;;;;;6.22;3.90;;;;;;;;;;5037072;28;20183;-60
2022/08/08 01:07:00;;;;;;;8.45;3.40;;;;;;;;;;5036900;28;20535;-60
2022/08/08 01:09:38;;;;;;;7.60;4.18;;;;;;;;;;5053682;28;20116;-60
2022/08/08 01:12:22;;;;;;;7.38;4.00;;;;;;;;;;5054451;28;20044;-60
2022/08/08 01:14:52;;;;;;;6.27;3.50;;;;;;;;;;5037030;28;20045;-60
2022/08/08 01:17:30;;;;;;;8.60;4.68;;;;;;;;;;5053995;28;20271;-60
2022/08/08 01:19:59;;;;;;;7.18;3.90;;;;;;;;;;5054304;28;20045;-60
2022/08/08 01:22:25;;;;;;;8.82;3.80;;;;;;;;;;5053306;28;20091;-60
2022/08/08 01:24:51;;;;;;;6.75;4.38;;;;;;;;;;5036601;28;20084;-60
2022/08/08 01:27:21;;;;;;;6.28;3.90;;;;;;;;;;5036691;28;20140;-59
2022/08/08 01:29:54;;;;;;;6.07;3.83;;;;;;;;;;5035592;28;20070;-60
2022/08/08 01:32:39;;;;;;;6.70;4.20;;;;;;;;;;5054426;28;20048;-59
2022/08/08 01:35:05;;;;;;;;;;;;;;;;;;5054538;28;20143;-60
2022/08/08 01:37:47;;;;;;;6.43;3.47;;;;;;;;;;5035653;28;20008;-60
2022/08/08 01:40:17;;;;;;;8.30;4.03;;;;;;;;;;5054503;28;20079;-60
2022/08/08 01:42:49;;;;;;;6.50;3.40;;;;;;;;;;5053976;28;20037;-60
2022/08/08 01:45:15;;;;;;;8.43;4.43;;;;;;;;;;5035873;28;20048;-60
2022/08/08 01:47:53;;;;;;;6.57;4.18;;;;;;;;;;5035999;28;20496;-60
2022/08/08 01:50:34;;;;;;;6.18;4.05;;;;;;;;;;5054199;28;20485;-60
2022/08/08 01:53:16;;;;;;;7.20;4.18;;;;;;;;;;5036010;28;20041;-60
2022/08/08 01:55:42;;;;;;;6.75;4.57;;;;;;;;;;5053686;28;20515;-60
2022/08/08 01:58:23;;;;;;;8.27;4.82;;;;;;;;;;5035605;28;20393;-60
2022/08/08 02:00:55;;;;;;;7.60;4.90;;;;;;;;;;5053859;28;20064;-60
2022/08/08 02:03:39;;;;;;;9.65;4.95;;;;;;;;;;5053892;28;20087;-60
2022/08/08 02:06:41;;;;;;;7.47;4.30;;;;;;;;;;5018317;28;20041;-60
2022/08/08 02:09:25;;;;;;;8.13;5.22;;;;;;;;;;4937301;29;20055;-60
2022/08/08 02:11:51;;;;;;;6.80;4.68;;;;;;;;;;4952460;29;20051;-60
2022/08/08 02:14:23;;;;;;;8.27;4.93;;;;;;;;;;4953625;29;20118;-60
2022/08/08 02:16:52;;;;;;;7.40;3.95;;;;;;;;;;4953080;29;20047;-60
2022/08/08 02:19:26;;;;;;;7.63;5.38;;;;;;;;;;4936718;29;20050;-60
2022/08/08 02:24:57;;;;;;;7.03;4.47;;;;;;;;;;5032437;28;20056;-60
2022/08/08 02:27:27;;;;;;;7.88;4.75;;;;;;;;;;5052435;28;20040;-60
2022/08/08 02:30:01;;;;;;;9.27;5.22;;;;;;;;;;5053294;28;20048;-60
2022/08/08 02:32:27;;;;;;;8.00;5.43;;;;;;;;;;5035594;28;20044;-60
2022/08/08 02:35:02;;;;;;;14.93;6.20;;;;;;;;;;5052282;28;20033;-60
2022/08/08 02:37:35;;;;;;;9.43;5.82;;;;;;;;;;5052957;28;20123;-60
2022/08/08 02:40:13;;;;;;;9.52;5.70;;;;;;;;;;5052348;28;20102;-59
2022/08/08 02:42:46;;;;;;;8.75;6.40;;;;;;;;;;5035167;28;20045;-60
2022/08/08 02:45:32;;;;;;;9.23;6.72;;;;;;;;;;5035292;28;20110;-60
2022/08/08 02:48:17;;;;;;;9.32;5.57;;;;;;;;;;5017852;28;20053;-60
2022/08/08 02:51:07;;;;;;;8.93;5.45;;;;;;;;;;5034940;28;20041;-60
2022/08/08 02:53:52;;;;;;;10.68;5.78;;;;;;;;;;5034845;28;20485;-60
2022/08/08 02:56:34;;;;;;;7.95;5.28;;;;;;;;;;5035286;28;20040;-60
2022/08/08 02:59:19;;;;;;;6.90;4.57;;;;;;;;;;5034702;28;20490;-60
2022/08/08 03:01:45;;;;;;;9.98;5.60;;;;;;;;;;5033808;28;20044;-60
2022/08/08 03:04:17;;;;;;;9.98;5.35;;;;;;;;;;5052809;28;20103;-60
2022/08/08 03:07:00;;;;;;;9.18;6.45;;;;;;;;;;5052473;28;20091;-60
2022/08/08 03:09:32;;;;;;;9.18;5.95;;;;;;;;;;5051761;28;20036;-59
2022/08/08 03:12:17;;;;;;;10.18;5.65;;;;;;;;;;5052438;28;20094;-60
2022/08/08 03:14:55;;;;;;;11.05;5.88;;;;;;;;;;5051892;28;20041;-60
2022/08/08 03:17:28;;;;;;;8.27;5.65;;;;;;;;;;5052687;28;20051;-60
2022/08/08 03:20:07;;;;;;;7.45;5.05;;;;;;;;;;5017279;28;20095;-60
2022/08/08 03:22:40;;;;;;;11.73;5.65;;;;;;;;;;5033741;28;20095;-60
2022/08/08 03:25:06;;;;;;;9.68;5.15;;;;;;;;;;5052058;28;20099;-60
2022/08/08 03:27:34;;;;;;;11.48;6.10;;;;;;;;;;5034296;28;20175;-60
2022/08/08 03:30:07;;;;;;;9.15;5.63;;;;;;;;;;5051324;28;20436;-60
2022/08/08 03:35:20;;;;;;;7.18;4.68;;;;;;;;;;5052311;28;20114;-60
2022/08/08 03:37:46;;;;;;;11.00;5.10;;;;;;;;;;5050801;28;20098;-59
2022/08/08 03:40:12;;;;;;;9.38;5.30;;;;;;;;;;5052220;28;20037;-59
2022/08/08 03:42:38;;;;;;;10.18;5.95;;;;;;;;;;5051858;28;20072;-60
2022/08/08 03:45:18;;;;;;;8.57;5.10;;;;;;;;;;5033523;28;20040;-60
2022/08/08 03:47:54;;;;;;;8.80;5.85;;;;;;;;;;5051623;28;20486;-60
2022/08/08 03:50:20;;;;;;;10.00;5.35;;;;;;;;;;5051283;28;20084;-60
2022/08/08 03:52:46;;;;;;;6.80;4.97;;;;;;;;;;5033748;28;20049;-60
2022/08/08 03:55:13;;;;;;;9.60;5.82;;;;;;;;;;5034243;28;20060;-60
2022/08/08 03:57:44;;;;;;;8.88;5.32;;;;;;;;;;5050928;28;20437;-60
2022/08/08 04:00:11;;;;;;;9.40;4.85;;;;;;;;;;5034382;28;20040;-60
2022/08/08 04:02:38;;;;;;;11.60;5.85;;;;;;;;;;5001130;28;20048;-60
2022/08/08 04:05:07;;;;;;;8.05;5.75;;;;;;;;;;5050935;28;20452;-60
2022/08/08 04:07:36;;;;;;;12.25;5.57;;;;;;;;;;5051847;28;20132;-60
2022/08/08 04:10:03;;;;;;;14.43;6.60;;;;;;;;;;5033955;28;20049;-60
2022/08/08 04:12:29;;;;;;;9.85;5.32;;;;;;;;;;5050774;28;20402;-60
2022/08/08 04:14:55;;;;;;;9.77;6.20;;;;;;;;;;5051616;28;20037;-60
2022/08/08 04:17:21;;;;;;;12.05;6.70;;;;;;;;;;5051765;28;20095;-60
2022/08/08 04:19:47;;;;;;;8.18;5.57;;;;;;;;;;5033007;28;20394;-60
2022/08/08 04:22:13;;;;;;;8.95;5.28;;;;;;;;;;5051731;28;20401;-60
2022/08/08 04:24:39;;;;;;;11.45;7.10;;;;;;;;;;5051668;28;20117;-60
2022/08/08 04:27:06;;;;;;;8.43;6.30;;;;;;;;;;5050663;28;20557;-60
2022/08/08 04:29:32;;;;;;;10.07;6.47;;;;;;;;;;5033901;28;20072;-60
2022/08/08 04:31:58;;;;;;;9.98;6.47;;;;;;;;;;5055405;28;20095;-60
2022/08/08 04:34:24;;;;;;;10.15;5.80;;;;;;;;;;5036878;28;20421;-60
2022/08/08 04:36:50;;;;;;;9.77;6.22;;;;;;;;;;5037706;28;20048;-60
2022/08/08 04:39:16;;;;;;;12.90;6.32;;;;;;;;;;5037245;28;20504;-60
2022/08/08 04:41:42;;;;;;;8.85;5.80;;;;;;;;;;5055038;28;20041;-60
2022/08/08 04:44:08;;;;;;;9.95;6.55;;;;;;;;;;5055384;28;20037;-60
2022/08/08 04:46:34;;;;;;;7.78;5.82;;;;;;;;;;5054244;28;20037;-60
2022/08/08 04:49:00;;;;;;;9.18;6.25;;;;;;;;;;5037231;28;20044;-60
2022/08/08 04:51:26;;;;;;;9.00;6.30;;;;;;;;;;5055050;28;20043;-60
2022/08/08 04:53:52;;;;;;;8.50;5.38;;;;;;;;;;5019804;28;20079;-60
2022/08/08 04:56:18;;;;;;;9.40;6.28;;;;;;;;;;5055214;28;20064;-60
2022/08/08 04:58:44;;;;;;;14.43;6.38;;;;;;;;;;5054596;28;20170;-60
2022/08/08 05:01:10;;;;;;;15.35;6.93;;;;;;;;;;5054236;28;20084;-60
2022/08/08 05:03:36;;;;;;;8.93;6.00;;;;;;;;;;5055009;28;20048;-60
2022/08/08 05:06:03;;;;;;;10.45;6.00;;;;;;;;;;5054819;28;20045;-59
2022/08/08 05:08:29;;;;;;;9.40;5.50;;;;;;;;;;5036277;28;20056;-60
2022/08/08 05:10:55;;;;;;;10.48;6.32;;;;;;;;;;5054477;28;20044;-60
2022/08/08 05:13:21;;;;;;;10.30;5.97;;;;;;;;;;5037288;28;20048;-60
2022/08/08 05:15:47;;;;;;;9.15;5.97;;;;;;;;;;5035969;28;20052;-60
2022/08/08 05:18:13;;;;;;;8.60;5.57;;;;;;;;;;5036858;28;20124;-59
2022/08/08 05:20:39;;;;;;;9.52;7.18;;;;;;;;;;5035780;28;20033;-59
2022/08/08 05:23:05;;;;;;;12.95;6.60;;;;;;;;;;5035626;28;20063;-59
2022/08/08 05:25:31;;;;;;;9.30;6.93;;;14.60;99.90;;;;;;5054261;28;20041;-59
2022/08/08 05:27:56;;;;;;;11.18;6.40;;;15.10;99.90;;;;;;5036620;28;20094;-60
2022/08/08 05:30:22;;;;;;;10.50;6.22;;;15.20;99.90;;;;;;5053352;28;20045;-59
2022/08/08 05:32:48;;;;;;;10.07;6.40;;;15.40;99.90;;;;;;5054423;28;20039;-59
2022/08/08 05:35:14;;;;;;;12.13;6.38;;;15.40;99.90;;;;;;5036791;28;20087;-59
2022/08/08 05:37:47;;;;;;;10.82;6.55;;;15.50;99.90;;;;;;5035775;28;20144;-59
2022/08/08 05:40:15;;;;;;;7.68;5.50;;;15.60;99.90;;;;;;5036318;28;20044;-59
2022/08/08 05:42:42;;;;;;;10.27;5.60;;;;;;;;;;5052082;28;20076;-60
2022/08/08 05:45:09;;;;;;;10.48;5.25;;;;;;;;;;5054439;28;20388;-60
2022/08/08 05:47:37;;;;;;;8.25;5.22;;;;;;;;;;5053479;28;20037;-60
2022/08/08 05:50:06;;;;;;;10.60;6.05;;;;;;;;;;5049537;28;20471;-60
2022/08/08 05:52:36;;;;;;;10.43;5.68;;;;;;;;;;5034819;28;20041;-60
2022/08/08 05:55:03;;;;;;;10.93;6.30;;;16.50;99.90;;;;;;5034605;28;20043;-59
2022/08/08 05:57:32;;;;;;;8.00;5.28;;;;;;;;;;5027597;28;20417;-60
2022/08/08 05:59:59;;;;;;;9.82;5.57;;;;;;;;;;5034078;28;20367;-59
2022/08/08 06:05:14;;;;;;;9.30;5.45;;;16.90;99.90;;;;;;5044680;28;20049;-59
2022/08/08 06:07:40;;;;;;;6.93;4.45;;;16.90;99.90;;;;;;5053512;28;20037;-59
2022/08/08 06:10:08;;;;;;;7.65;4.22;;;;;;;;;;5035640;28;20470;-59
2022/08/08 06:12:35;;;;;;;10.65;4.35;;;;;;;;;;5029365;28;20048;-59
2022/08/08 06:15:04;;;;;;;8.02;4.35;;;17.30;99.90;;;;;;5050855;28;20477;-59
2022/08/08 06:17:34;;;;;;;7.93;4.00;;;17.20;99.90;;;;;;5016720;28;20053;-59
2022/08/08 06:20:09;;;;;;;6.85;3.10;;;17.30;99.90;;;;;;5043346;28;20076;-59
2022/08/08 06:22:35;;;;;;;8.35;3.83;;;17.40;99.90;;;;;;5033199;28;20115;-59
2022/08/08 06:25:01;;;;;;;5.70;3.28;;;;;;;;;;5049414;28;20037;-59
2022/08/08 06:27:34;;;;;;;13.82;3.45;;;17.60;99.90;;;;;;5032892;28;20624;-59
2022/08/08 06:30:10;;;;;;;7.15;3.35;;;17.70;99.90;;;;;;5050762;28;20044;-59
2022/08/08 06:32:56;;;;;;;9.00;3.58;;;17.80;99.90;;;;;;5015149;28;20106;-59
2022/08/08 06:35:23;;;;;;;6.88;3.33;;;17.90;99.90;;;;;;5015707;28;20049;-59
2022/08/08 06:37:58;;;;;;;6.28;3.28;;;18.00;99.90;;;;;;5015858;28;20051;-59
2022/08/08 06:40:30;;;;;;;8.15;2.92;;;18.10;99.90;;;;;;5049435;28;20072;-59
2022/08/08 06:43:06;;;;;;;5.30;2.10;;;18.20;99.90;;;;;;5050737;28;20041;-59
2022/08/08 06:45:32;;;;;;;5.93;1.88;;;18.30;99.90;;;;;;5059940;28;20037;-59
2022/08/08 06:47:59;;;;;;;3.88;1.88;;;18.30;99.90;;;;;;5053333;28;20047;-59
2022/08/08 06:50:26;;;;;;;5.35;1.92;;;18.40;99.90;;;;;;5031966;28;20514;-59
2022/08/08 06:52:52;;;;;;;5.57;1.70;;;18.50;99.90;;;;;;5031618;28;20919;-60
2022/08/08 06:55:24;;;;;;;5.47;1.42;;;18.60;99.90;;;;;;5015471;28;20044;-60
2022/08/08 06:57:50;;;;;;;11.15;3.75;;;;;;;;;;5032278;28;20041;-60
2022/08/08 07:00:16;;;;;;;5.18;1.83;;;;;;;;;;5030914;28;20587;-60
2022/08/08 07:02:45;;;;;;;5.07;1.80;;;;;;;;;;5019126;28;20079;-60
2022/08/08 07:05:15;;;;;;;4.20;1.60;;;;;;;;;;5049969;28;20044;-60
2022/08/08 07:08:00;;;;;;;5.30;1.60;;;;;;;;;;5054020;28;20462;-60
2022/08/08 07:10:28;;;;;;;4.60;1.55;;;;;;;;;;5044715;28;20405;-60
2022/08/08 07:13:00;;;;;;;4.78;1.63;;;;;;;;;;5014713;28;20433;-60
2022/08/08 07:15:46;;;;;;;6.00;2.40;;;;;;;;;;5059440;28;20083;-60
2022/08/08 07:18:14;;;;;;;5.32;2.08;;;;;;;;;;5070066;28;20793;-59
2022/08/08 07:20:44;;;;;;;6.85;1.65;;;;;;;;;;5067919;28;20039;-60
2022/08/08 07:23:15;;;;;;;4.50;1.60;;;;;;;;;;5039446;28;20119;-60
2022/08/08 07:25:43;;;;;;;6.68;1.90;;;;;;;;;;5029241;28;20124;-60
2022/08/08 07:28:22;;;;;;;4.70;1.65;;;;;;;;;;5011028;28;20073;-60
2022/08/08 07:30:49;;;;;;;4.20;1.60;;;;;;;;;;5013703;28;20163;-63
2022/08/08 07:33:15;;;;;;;3.15;1.40;;;;;;;;;;5014304;28;20045;-63
2022/08/08 07:35:43;;;;;;;4.65;1.38;;;;;;;;;;5031174;28;20426;-63
2022/08/08 07:38:10;;;;;;;4.60;1.80;;;;;;;;;;5032331;28;20095;-62
2022/08/08 07:40:36;;;;;;;8.43;2.17;;;;;;;;;;5030805;28;20044;-61
2022/08/08 07:43:03;;;;;;;5.03;1.40;;;;;;;;;;5030163;28;20152;-61
2022/08/08 07:45:29;;;;;;;6.13;1.98;;;;;;;;;;5031703;28;20045;-61
2022/08/08 07:47:57;;;;;;;3.22;1.50;;;;;;;;;;5030641;28;20120;-61
2022/08/08 07:50:24;;;;;;;4.20;1.70;;;;;;;;;;5029434;28;20119;-62
2022/08/08 07:52:51;;;;;;;5.93;2.13;;;;;;;;;;5031105;28;20482;-61
2022/08/08 07:55:25;;;;;;;4.82;2.33;;;;;;;;;;5032297;28;20037;-61
2022/08/08 07:58:15;;;;;;;4.70;1.80;;;;;;;;;;5029744;28;20471;-62
2022/08/08 08:00:51;;;;;;;5.10;1.73;;;;;;;;;;5030634;28;20445;-62
2022/08/08 08:03:21;;;;;;;3.88;1.63;;;;;;;;;;5030278;28;20479;-61
2022/08/08 08:05:50;;;;;;;5.93;1.50;;;;;;;;;;5016378;28;20037;-62
2022/08/08 08:08:17;;;;;;;4.82;1.67;;;;;;;;;;5035010;28;20049;-61
2022/08/08 08:10:44;;;;;;;7.60;2.15;;;;;;;;;;5033782;28;20124;-62
2022/08/08 08:13:20;;;;;;;3.47;1.55;;;;;;;;;;5034933;28;20045;-61
2022/08/08 08:15:54;;;;;;;5.82;1.70;;;;;;;;;;5031153;28;20104;-61
2022/08/08 08:18:22;;;;;;;3.35;1.40;;;;;;;;;;5014259;28;20038;-62
2022/08/08 08:20:50;;;;;;;5.93;2.47;;;;;;;;;;5029416;28;20429;-62
2022/08/08 08:23:16;;;;;;;7.35;1.60;;;;;;;;;;5034490;28;20054;-61
2022/08/08 08:25:42;;;;;;;4.38;1.58;;;;;;;;;;5035146;28;20126;-62
2022/08/08 08:28:08;;;;;;;6.50;2.00;;;;;;;;;;5035898;28;20038;-61
2022/08/08 08:30:34;;;;;;;5.75;2.05;;;;;;;;;;5035008;28;20378;-61
2022/08/08 08:33:00;;;;;;;3.97;1.80;;;;;;;;;;5033699;28;20379;-61
2022/08/08 08:35:27;;;;;;;4.53;2.05;;;;;;;;;;5034265;28;20041;-61
2022/08/08 08:37:53;;;;;;;5.20;2.05;;;;;;;;;;5034479;28;20398;-61
2022/08/08 08:40:20;;;;;;;6.78;2.53;;;;;;;;;;5033359;28;20045;-61
2022/08/08 08:42:47;;;;;;;6.25;2.13;;;;;;;;;;5033864;28;20041;-61
2022/08/08 08:45:14;;;;;;;9.05;2.45;;;;;;;;;;5033506;28;20041;-61
2022/08/08 08:47:42;;;;;;;5.30;2.30;;;;;;;;;;5034300;28;20038;-61
2022/08/08 08:50:09;;;;;;;10.82;2.50;;;;;;;;;;5034252;28;20052;-61
2022/08/08 08:52:36;;;;;;;11.48;3.30;;;;;;;;;;5033220;28;20463;-61
2022/08/08 08:55:02;;;;;;;7.13;2.22;;;;;;;;;;5031878;28;20038;-61
2022/08/08 08:57:29;;;;;;;5.80;2.45;;;;;;;;;;5043947;28;20044;-61
2022/08/08 08:59:57;;;;;;;4.78;2.17;;;;;;;;;;5054258;28;20041;-62
2022/08/08 09:02:25;;;;;;;4.35;1.92;;;;;;;;;;5021346;28;20044;-61
2022/08/08 09:04:54;;;;;;;7.10;2.45;;;;;;;;;;5034773;28;20038;-61
2022/08/08 09:07:22;;;;;;;5.22;2.50;;;;;;;;;;5034748;28;20080;-62
2022/08/08 09:09:50;;;;;;;6.78;2.33;;;;;;;;;;5035061;28;20044;-62
2022/08/08 09:12:17;;;;;;;7.53;2.40;;;;;;;;;;5033537;28;20531;-62
2022/08/08 09:14:44;;;;;;;6.60;2.35;;;;;;;;;;5049852;28;20061;-61
2022/08/08 09:17:10;;;;;;;6.50;2.30;;;;;;;;;;5053616;28;20432;-62
2022/08/08 09:19:36;;;;;;;8.15;2.72;;;;;;;;;;5053221;28;20049;-61
2022/08/08 09:22:04;;;;;;;7.15;2.22;;;;;;;;;;5055738;28;20400;-61
2022/08/08 09:24:30;;;;;;;6.63;2.13;;;;;;;;;;5074499;28;20119;-61
2022/08/08 09:27:01;;;;;;;4.93;2.00;;;;;;;;;;5074270;28;20051;-62
2022/08/08 09:29:31;;;;;;;5.65;2.78;;;;;;;;;;5055795;28;20041;-62
2022/08/08 09:32:09;;;;;;;7.15;2.85;;;;;;;;;;5074316;28;20392;-62
2022/08/08 09:34:35;;;;;;;5.47;2.90;;;;;;;;;;5056273;28;20090;-62
2022/08/08 09:37:03;;;;;;;6.10;2.58;;;;;;;;;;5038810;28;20117;-71
2022/08/08 09:39:41;;;;;;;7.65;2.63;;;;;;;;;;5039595;28;20106;-71
2022/08/08 09:42:11;;;;;;;7.03;2.70;;;;;;;;;;5055233;28;20032;-71
2022/08/08 09:44:41;;;;;;;5.57;2.78;;;;;;;;;;5039376;28;20041;-72
2022/08/08 09:47:07;;;;;;;6.40;3.03;;;;;;;;;;5056007;28;20043;-71
2022/08/08 09:49:37;;;;;;;7.38;2.50;;;;;;;;;;5069837;28;20041;-71
2022/08/08 09:52:04;;;;;;;6.80;2.80;;;;;;;;;;5019396;28;20083;-71
2022/08/08 09:54:34;;;;;;;5.70;3.03;;;;;;;;;;5019756;28;20544;-71
2022/08/08 09:57:02;;;;;;;5.97;2.90;;;;;;;;;;5053369;28;20052;-71
2022/08/08 09:59:31;;;;;;;5.22;2.22;;;;;;;;;;5035819;28;20494;-71
2022/08/08 10:02:02;;;;;;;6.18;2.58;;;;;;;;;;5019441;28;20039;-71
2022/08/08 10:04:28;;;;;;;7.10;2.20;;;;;;;;;;5053286;28;20394;-70
2022/08/08 10:06:56;;;;;;;4.07;2.00;;;;;;;;;;5046591;28;20091;-71
2022/08/08 10:09:32;;;;;;;6.00;2.40;;;;;;;;;;5030153;28;20080;-70
2022/08/08 10:12:02;;;;;;;4.53;2.33;;;;;;;;;;5039461;28;20041;-67
2022/08/08 10:14:33;;;;;;;6.63;2.40;;;;;;;;;;5025090;28;20041;-67
2022/08/08 10:16:59;;;;;;;5.05;2.45;;;;;;;;;;4998896;28;20049;-69
2022/08/08 10:19:34;;;;;;;3.95;2.13;;;;;;;;;;5015812;28;20041;-72
2022/08/08 10:22:01;;;;;;;7.70;2.35;;;;;;;;;;5010629;28;20050;-73
2022/08/08 10:24:27;;;;;;;4.53;1.98;;;;;;;;;;5030639;28;20033;-70
2022/08/08 10:26:58;;;;;;;5.30;1.85;;;;;;;;;;5042667;28;20067;-71
2022/08/08 10:29:38;;;;;;;5.88;1.90;;;;;;;;;;5051282;28;20544;-72
2022/08/08 10:34:56;;;;;;;4.60;2.05;;;;;;;;;;5031071;28;20084;-71
2022/08/08 10:37:26;;;;;;;6.55;2.17;;;20.60;99.90;;;;;;5030291;28;20041;-71
2022/08/08 10:39:54;;;;;;;6.53;1.75;;;20.50;99.90;;;;;;5021201;28;20044;-71
2022/08/08 10:42:22;;;;;;;3.78;1.73;;;20.60;99.90;;;;;;5039549;28;20051;-64
2022/08/08 10:44:48;;;;;;;3.92;1.63;;;20.60;99.90;;;;;;5045647;28;20032;-64
2022/08/08 10:47:16;;;;;;;4.85;1.90;;;20.70;99.90;;;;;;5049621;28;20025;-63
2022/08/08 10:49:50;;;;;;;3.50;1.45;;;20.70;99.90;;;;;;5007528;28;20041;-63
2022/08/08 10:52:45;;;;;;;4.82;2.03;;;20.70;99.90;;;;;;5032014;28;20409;-63
2022/08/08 10:55:12;;;;;;;6.53;2.08;;;20.80;99.90;;;;;;5008605;28;20053;-63
2022/08/08 10:57:49;;;;;;;3.90;1.50;;;20.90;99.90;;;;;;5032956;28;20095;-64
2022/08/08 11:00:23;;;;;;;4.50;1.58;;;20.80;99.90;;;;;;5014427;28;20037;-64
2022/08/08 11:02:49;;;;;;;3.83;1.23;;;20.90;99.90;;;;;;5027827;28;20038;-64
2022/08/08 11:05:15;;;;;;;5.20;1.70;;;20.90;99.90;;;;;;5020530;28;20033;-64
2022/08/08 11:07:47;;;;;;;5.03;1.98;;;20.90;99.90;;;;;;5018235;28;20033;-64
2022/08/08 11:10:15;;;;;;;6.88;1.83;;;20.90;99.90;;;;;;5022947;28;20041;-64
2022/08/08 11:13:10;;;;;;;4.90;1.70;;;;;;;;;;5026332;28;20037;-64
2022/08/08 11:15:36;;;;;;;7.25;2.25;;;;;;;;;;5026619;28;20088;-64
2022/08/08 11:18:02;;;;;;;4.10;1.50;;;;;;;;;;5034925;28;20486;-64
2022/08/08 11:20:28;;;;;;;6.80;1.67;;;;;;;;;;5028559;28;20049;-64
2022/08/08 11:22:59;;;;;;;5.07;1.73;;;;;;;;;;5043376;28;20061;-64
2022/08/08 11:25:26;;;;;;;4.35;1.92;;;;;;;;;;5031905;28;20458;-64
2022/08/08 11:27:56;;;;;;;4.32;1.63;;;;;;;;;;5031271;28;20051;-64
2022/08/08 11:30:23;;;;;;;3.38;1.35;;;;;;;;;;5049691;28;20492;-64
2022/08/08 11:32:52;;;;;;;5.45;2.08;;;;;;;;;;5047742;28;20075;-64
2022/08/08 11:35:19;;;;;;;6.00;1.60;;;;;;;;;;5031029;28;20045;-64
2022/08/08 11:37:45;;;;;;;4.10;1.70;;;;;;;;;;5049536;28;20124;-64
2022/08/08 11:40:13;;;;;;;5.50;1.98;;;;;;;;;;5047906;28;20044;-64
2022/08/08 11:42:40;;;;;;;4.63;1.80;;;21.50;99.90;;;;;;5030635;28;20056;-64
2022/08/08 11:45:07;;;;;;;4.55;1.70;;;21.50;99.90;;;;;;5049483;28;20663;-64
2022/08/08 11:47:34;;;;;;;3.92;1.50;;;21.60;99.90;;;;;;5028390;28;20049;-68
2022/08/08 11:50:04;;;;;;;5.28;1.90;;;21.50;99.90;;;;;;5030000;28;20049;-64
2022/08/08 11:52:31;;;;;;;6.38;1.70;;;21.40;99.90;;;;;;5028395;28;20517;-64
2022/08/08 11:54:56;;;;;;;4.60;1.63;;;21.20;99.90;;;;;;5031274;28;20041;-64
2022/08/08 11:57:27;;;;;;;3.45;1.55;;;21.10;99.90;;;;;;5031016;28;20048;-64
2022/08/08 11:59:57;;;;;;;5.97;1.80;;;21.00;99.90;;;;;;5011743;28;20053;-64
2022/08/08 12:02:26;;;;;;;3.45;1.27;;;21.00;99.90;;;;;;5026571;28;20033;-64
2022/08/08 12:05:01;;;;;;;3.42;1.33;;;21.00;99.90;;;;;;5030154;28;20082;-64
2022/08/08 12:07:27;;;;;;;4.13;1.33;;;21.00;99.90;;;;;;5013081;28;20037;-64
2022/08/08 12:09:55;;;;;;;5.40;1.60;;;21.00;99.90;;;;;;5030431;28;20057;-63
2022/08/08 12:12:25;;;;;;;4.63;1.80;;;21.00;99.90;;;;;;5051686;28;20041;-63
2022/08/08 12:15:03;;;;;;;3.78;1.60;;;19.10;99.90;;;;;;5023287;28;20106;-64
2022/08/08 12:17:34;;;;;;;3.70;1.52;;;21.00;99.90;;;;;;5021960;28;20048;-64
2022/08/08 12:20:03;;;;;;;3.33;1.48;;;21.00;99.90;;;;;;5049445;28;20041;-62
2022/08/08 12:22:30;;;;;;;3.80;1.85;;;21.00;99.90;;;;;;5047184;28;20438;-63
2022/08/08 12:24:57;;;;;;;4.68;1.77;;;21.10;99.90;;;;;;5028596;28;20709;-62
2022/08/08 12:27:23;;;;;;;4.53;1.35;;;21.10;99.90;;;;;;5030038;28;20484;-61
2022/08/08 12:29:57;;;;;;;5.40;1.75;;;21.40;99.90;;;;;;5048393;28;20476;-61
2022/08/08 12:32:23;;;;;;;3.13;1.23;;;21.80;99.90;;;;;;5027792;28;20053;-61
2022/08/08 12:35:21;;;;;;;3.60;1.55;;;22.00;99.90;;;;;;5048734;28;20055;-61
2022/08/08 12:38:11;;;;;;;3.70;1.58;;;22.00;99.90;;;;;;5029477;28;20079;-61
2022/08/08 12:40:45;;;;;;;4.28;1.75;;;21.90;99.90;;;;;;5045984;28;20045;-61
2022/08/08 12:43:12;;;;;;;3.95;1.60;;;21.80;99.90;;;;;;5048854;28;20454;-61
2022/08/08 12:45:40;;;;;;;4.57;1.90;;;21.60;99.90;;;;;;5048497;28;20052;-61
2022/08/08 12:48:20;;;;;;;5.18;1.40;;;21.40;99.90;;;;;;5031447;28;20527;-61
2022/08/08 12:50:57;;;;;;;3.92;1.38;;;21.30;99.90;;;;;;5022192;28;20426;-60
2022/08/08 12:53:31;;;;;;;5.93;1.70;;;21.20;99.90;;;;;;5033564;28;20037;-60
2022/08/08 12:55:59;;;;;;;3.75;1.65;;;21.00;99.90;;;;;;5052271;28;20041;-60
2022/08/08 12:58:26;;;;;;;5.93;2.05;;;20.90;99.90;;;;;;5032229;28;20493;-60
2022/08/08 13:00:52;;;;;;;2.63;1.25;;;20.80;99.90;;;;;;5040546;28;20036;-60
2022/08/08 13:03:31;;;;;;;10.10;1.95;;;20.80;99.90;;;;;;5032125;28;20111;-60
2022/08/08 13:06:11;;;;;;;5.38;1.80;;;20.80;99.90;;;;;;5051259;28;20128;-60
2022/08/08 13:08:48;;;;;;;3.58;1.50;;;20.70;99.90;;;;;;5030830;28;20053;-60
2022/08/08 13:11:32;;;;;;;3.15;1.48;;;20.70;99.90;;;;;;5028068;28;20080;-60
2022/08/08 13:14:14;;;;;;;4.87;1.97;;;20.80;99.90;;;;;;5023635;28;20500;-60
2022/08/08 13:16:41;;;;;;;4.07;2.15;;;20.90;99.90;;;;;;5032317;28;20363;-61
2022/08/08 13:19:08;;;;;;;5.93;3.03;;;20.80;99.90;;;;;;5033104;28;20518;-62
2022/08/08 13:21:45;;;;;;;6.20;2.35;;;20.90;99.90;;;;;;5030478;28;20498;-62
2022/08/08 13:24:12;;;;;;;5.60;2.53;;;21.60;99.90;;;;;;5015375;28;20102;-63
2022/08/08 13:26:46;;;;;;;4.07;1.70;;;20.70;99.90;;;;;;5049506;28;20040;-62
2022/08/08 13:29:18;;;;;;;5.82;2.17;;;20.70;99.90;;;;;;5016156;28;20072;-62
2022/08/08 13:31:49;;;;;;;5.72;2.22;;;20.60;99.90;;;;;;5033630;28;20039;-62
2022/08/08 13:34:23;;;;;;;5.18;1.52;;;20.60;99.90;;;;;;5051478;28;20094;-62
2022/08/08 13:36:50;;;;;;;;;;;20.70;99.90;;;;;;5017407;28;20052;-62
2022/08/08 13:39:16;;;;;;;5.20;1.70;;;20.60;99.90;;;;;;5033037;28;20028;-62
2022/08/08 13:41:43;;;;;;;5.18;1.80;;;20.60;99.90;;;;;;5032467;28;20144;-62
2022/08/08 13:44:09;;;;;;;5.10;1.90;;;20.60;99.90;;;;;;5051205;28;20132;-62
2022/08/08 13:46:35;;;;;;;6.15;2.00;;;20.60;99.90;;;;;;5034008;28;20051;-62
2022/08/08 13:49:00;;;;;;;4.63;2.03;;;20.60;99.90;;;;;;5050952;28;20561;-62
2022/08/08 13:51:26;;;;;;;4.95;1.98;;;20.60;99.90;;;;;;5051529;28;20071;-62
2022/08/08 13:53:53;;;;;;;5.00;1.80;;;20.60;99.90;;;;;;5033207;28;20049;-62
2022/08/08 13:56:30;;;;;;;4.15;2.08;;;20.50;99.90;;;;;;5045272;28;20629;-62
2022/08/08 13:58:56;;;;;;;4.22;1.80;;;20.60;99.90;;;;;;5050985;28;20048;-62
2022/08/08 14:01:27;;;;;;;4.38;1.90;;;20.60;99.90;;;;;;5047797;28;20046;-62
2022/08/08 14:03:55;;;;;;;5.63;2.22;;;20.70;99.90;;;;;;5020512;28;20080;-61
2022/08/08 14:06:22;;;;;;;4.97;2.10;;;20.70;99.90;;;;;;5033333;28;20052;-62
2022/08/08 14:08:48;;;;;;;6.05;2.60;;;20.80;99.90;;;;;;5009336;28;20048;-62
2022/08/08 14:11:20;;;;;;;4.32;2.05;;;20.90;99.90;;;;;;5050756;28;20512;-62
2022/08/08 14:13:47;;;;;;;4.88;2.03;;;21.00;99.90;;;;;;5039199;28;20066;-62
2022/08/08 14:16:13;;;;;;;8.02;2.60;;;21.10;99.90;;;;;;5048997;28;20535;-62
2022/08/08 14:19:00;;;;;;;5.38;2.30;;;21.10;99.90;;;;;;5050421;28;20048;-62
2022/08/08 14:21:40;;;;;;;4.40;2.10;;;21.20;99.90;;;;;;5051021;28;20435;-61
2022/08/08 14:24:06;;;;;;;5.60;1.80;;;21.20;99.90;;;;;;5030116;28;20087;-61
2022/08/08 14:26:31;;;;;;;5.25;2.25;;;21.40;99.90;;;;;;5050489;28;20044;-60
2022/08/08 14:28:58;;;;;;;4.05;1.80;;;21.70;99.90;;;;;;5029629;28;20053;-61